sensor_id;sensor_type;location;lat;lon;timestamp;P1;durP1;ratioP1;P2;durP2;ratioP2
15982;SDS011;14442;50.196;8.096;2022-12-18T00:00:43;7.27;;;6.50;;
15982;SDS011;14442;50.196;8.096;2022-12-18T00:03:11;7.07;;;6.47;;
15982;SDS011;14442;50.196;8.096;2022-12-18T00:05:45;7.73;;;6.37;;
15982;SDS011;14442;50.196;8.096;2022-12-18T00:08:12;7.97;;;6.07;;
15982;SDS011;14442;50.196;8.096;2022-12-18T00:10:39;7.13;;;6.47;;
15982;SDS011;14442;50.196;8.096;2022-12-18T00:13:05;7.90;;;5.83;;
15982;SDS011;14442;50.196;8.096;2022-12-18T00:15:34;6.47;;;5.87;;
15982;SDS011;14442;50.196;8.096;2022-12-18T00:18:01;6.00;;;5.50;;
15982;SDS011;14442;50.196;8.096;2022-12-18T00:20:27;5.57;;;5.13;;
15982;SDS011;14442;50.196;8.096;2022-12-18T00:22:54;7.13;;;6.30;;
15982;SDS011;14442;50.196;8.096;2022-12-18T00:25:21;6.03;;;5.43;;
15982;SDS011;14442;50.196;8.096;2022-12-18T00:27:48;6.30;;;5.67;;
15982;SDS011;14442;50.196;8.096;2022-12-18T00:30:15;5.53;;;5.13;;
15982;SDS011;14442;50.196;8.096;2022-12-18T00:32:43;5.57;;;5.13;;
15982;SDS011;14442;50.196;8.096;2022-12-18T00:35:10;5.43;;;5.03;;
15982;SDS011;14442;50.196;8.096;2022-12-18T00:37:36;5.13;;;4.73;;
15982;SDS011;14442;50.196;8.096;2022-12-18T00:40:03;5.73;;;5.23;;
15982;SDS011;14442;50.196;8.096;2022-12-18T00:42:31;5.13;;;4.73;;
15982;SDS011;14442;50.196;8.096;2022-12-18T00:45:15;5.70;;;5.20;;
15982;SDS011;14442;50.196;8.096;2022-12-18T00:47:43;5.20;;;4.80;;
15982;SDS011;14442;50.196;8.096;2022-12-18T00:50:10;5.60;;;5.10;;
15982;SDS011;14442;50.196;8.096;2022-12-18T00:52:39;5.10;;;4.70;;
15982;SDS011;14442;50.196;8.096;2022-12-18T00:55:07;5.50;;;5.10;;
15982;SDS011;14442;50.196;8.096;2022-12-18T00:57:33;5.30;;;4.90;;
15982;SDS011;14442;50.196;8.096;2022-12-18T01:00:00;5.10;;;4.70;;
15982;SDS011;14442;50.196;8.096;2022-12-18T01:02:27;5.30;;;4.87;;
15982;SDS011;14442;50.196;8.096;2022-12-18T01:04:55;5.10;;;4.60;;
15982;SDS011;14442;50.196;8.096;2022-12-18T01:07:22;4.73;;;4.40;;
15982;SDS011;14442;50.196;8.096;2022-12-18T01:09:48;4.70;;;4.33;;
15982;SDS011;14442;50.196;8.096;2022-12-18T01:12:15;4.60;;;4.30;;
15982;SDS011;14442;50.196;8.096;2022-12-18T01:14:42;4.43;;;4.13;;
15982;SDS011;14442;50.196;8.096;2022-12-18T01:17:08;4.97;;;4.57;;
15982;SDS011;14442;50.196;8.096;2022-12-18T01:19:35;4.57;;;4.17;;
15982;SDS011;14442;50.196;8.096;2022-12-18T01:22:03;4.90;;;4.50;;
15982;SDS011;14442;50.196;8.096;2022-12-18T01:24:30;5.27;;;4.87;;
15982;SDS011;14442;50.196;8.096;2022-12-18T01:26:56;5.37;;;4.97;;
15982;SDS011;14442;50.196;8.096;2022-12-18T01:29:23;4.77;;;4.37;;
15982;SDS011;14442;50.196;8.096;2022-12-18T01:31:50;5.23;;;4.83;;
15982;SDS011;14442;50.196;8.096;2022-12-18T01:34:16;5.03;;;4.63;;
15982;SDS011;14442;50.196;8.096;2022-12-18T01:36:43;4.97;;;4.57;;
15982;SDS011;14442;50.196;8.096;2022-12-18T01:39:12;4.60;;;4.27;;
15982;SDS011;14442;50.196;8.096;2022-12-18T01:41:40;4.50;;;4.20;;
15982;SDS011;14442;50.196;8.096;2022-12-18T01:47:20;5.30;;;4.90;;
15982;SDS011;14442;50.196;8.096;2022-12-18T01:49:50;5.00;;;4.60;;
15982;SDS011;14442;50.196;8.096;2022-12-18T01:52:17;5.27;;;4.87;;
15982;SDS011;14442;50.196;8.096;2022-12-18T01:54:47;4.63;;;4.33;;
15982;SDS011;14442;50.196;8.096;2022-12-18T01:57:16;5.03;;;4.63;;
15982;SDS011;14442;50.196;8.096;2022-12-18T01:59:44;4.40;;;4.10;;
15982;SDS011;14442;50.196;8.096;2022-12-18T02:02:13;4.57;;;4.27;;
15982;SDS011;14442;50.196;8.096;2022-12-18T02:04:41;4.67;;;4.37;;
15982;SDS011;14442;50.196;8.096;2022-12-18T02:07:10;4.40;;;4.00;;
15982;SDS011;14442;50.196;8.096;2022-12-18T02:09:48;5.13;;;4.73;;
15982;SDS011;14442;50.196;8.096;2022-12-18T02:12:19;4.73;;;4.37;;
15982;SDS011;14442;50.196;8.096;2022-12-18T02:14:49;4.70;;;4.37;;
15982;SDS011;14442;50.196;8.096;2022-12-18T02:17:25;4.20;;;3.90;;
15982;SDS011;14442;50.196;8.096;2022-12-18T02:20:02;4.87;;;4.47;;
15982;SDS011;14442;50.196;8.096;2022-12-18T02:22:40;4.73;;;4.43;;
15982;SDS011;14442;50.196;8.096;2022-12-18T02:25:19;4.60;;;4.30;;
15982;SDS011;14442;50.196;8.096;2022-12-18T02:27:57;4.40;;;4.10;;
15982;SDS011;14442;50.196;8.096;2022-12-18T02:30:27;4.43;;;4.13;;
15982;SDS011;14442;50.196;8.096;2022-12-18T02:32:58;5.00;;;4.60;;
15982;SDS011;14442;50.196;8.096;2022-12-18T02:35:28;4.90;;;4.60;;
15982;SDS011;14442;50.196;8.096;2022-12-18T02:37:56;4.17;;;3.87;;
15982;SDS011;14442;50.196;8.096;2022-12-18T02:40:24;4.47;;;4.17;;
15982;SDS011;14442;50.196;8.096;2022-12-18T02:42:53;4.50;;;4.20;;
15982;SDS011;14442;50.196;8.096;2022-12-18T02:45:21;4.40;;;4.10;;
15982;SDS011;14442;50.196;8.096;2022-12-18T02:47:48;4.73;;;4.43;;
15982;SDS011;14442;50.196;8.096;2022-12-18T02:50:17;4.57;;;4.27;;
15982;SDS011;14442;50.196;8.096;2022-12-18T02:52:50;3.77;;;3.57;;
15982;SDS011;14442;50.196;8.096;2022-12-18T02:55:27;4.70;;;4.30;;
15982;SDS011;14442;50.196;8.096;2022-12-18T02:58:03;4.63;;;4.33;;
15982;SDS011;14442;50.196;8.096;2022-12-18T03:00:36;4.40;;;4.10;;
15982;SDS011;14442;50.196;8.096;2022-12-18T03:03:07;4.73;;;4.33;;
15982;SDS011;14442;50.196;8.096;2022-12-18T03:05:38;5.07;;;4.67;;
15982;SDS011;14442;50.196;8.096;2022-12-18T03:08:08;4.20;;;3.90;;
15982;SDS011;14442;50.196;8.096;2022-12-18T03:10:40;4.53;;;4.23;;
15982;SDS011;14442;50.196;8.096;2022-12-18T03:13:12;4.30;;;4.00;;
15982;SDS011;14442;50.196;8.096;2022-12-18T03:15:45;4.40;;;4.10;;
15982;SDS011;14442;50.196;8.096;2022-12-18T03:18:16;4.43;;;4.13;;
15982;SDS011;14442;50.196;8.096;2022-12-18T03:20:46;5.03;;;4.60;;
15982;SDS011;14442;50.196;8.096;2022-12-18T03:23:17;4.77;;;4.40;;
15982;SDS011;14442;50.196;8.096;2022-12-18T03:25:46;4.80;;;4.40;;
15982;SDS011;14442;50.196;8.096;2022-12-18T03:28:19;4.93;;;4.60;;
15982;SDS011;14442;50.196;8.096;2022-12-18T03:30:52;4.33;;;4.03;;
15982;SDS011;14442;50.196;8.096;2022-12-18T03:33:24;4.93;;;4.53;;
15982;SDS011;14442;50.196;8.096;2022-12-18T03:35:54;4.50;;;4.20;;
15982;SDS011;14442;50.196;8.096;2022-12-18T03:38:21;4.90;;;4.50;;
15982;SDS011;14442;50.196;8.096;2022-12-18T03:40:51;4.60;;;4.30;;
15982;SDS011;14442;50.196;8.096;2022-12-18T03:43:28;4.50;;;4.20;;
15982;SDS011;14442;50.196;8.096;2022-12-18T03:46:02;4.47;;;4.17;;
15982;SDS011;14442;50.196;8.096;2022-12-18T03:48:36;4.67;;;4.27;;
15982;SDS011;14442;50.196;8.096;2022-12-18T03:51:08;4.67;;;4.37;;
15982;SDS011;14442;50.196;8.096;2022-12-18T03:53:40;4.87;;;4.50;;
15982;SDS011;14442;50.196;8.096;2022-12-18T03:56:14;4.03;;;3.73;;
15982;SDS011;14442;50.196;8.096;2022-12-18T03:58:42;4.43;;;4.13;;
15982;SDS011;14442;50.196;8.096;2022-12-18T04:01:13;4.90;;;4.50;;
15982;SDS011;14442;50.196;8.096;2022-12-18T04:03:42;4.23;;;3.93;;
15982;SDS011;14442;50.196;8.096;2022-12-18T04:06:12;4.90;;;4.50;;
15982;SDS011;14442;50.196;8.096;2022-12-18T04:08:40;4.50;;;4.20;;
15982;SDS011;14442;50.196;8.096;2022-12-18T04:11:07;4.83;;;4.53;;
15982;SDS011;14442;50.196;8.096;2022-12-18T04:13:35;4.33;;;4.03;;
15982;SDS011;14442;50.196;8.096;2022-12-18T04:16:03;4.90;;;4.60;;
15982;SDS011;14442;50.196;8.096;2022-12-18T04:18:32;3.90;;;3.60;;
15982;SDS011;14442;50.196;8.096;2022-12-18T04:20:59;5.10;;;4.70;;
15982;SDS011;14442;50.196;8.096;2022-12-18T04:23:25;4.77;;;4.37;;
15982;SDS011;14442;50.196;8.096;2022-12-18T04:25:53;4.70;;;4.33;;
15982;SDS011;14442;50.196;8.096;2022-12-18T04:28:20;4.20;;;3.90;;
15982;SDS011;14442;50.196;8.096;2022-12-18T04:30:47;4.70;;;4.40;;
15982;SDS011;14442;50.196;8.096;2022-12-18T04:33:14;4.47;;;4.07;;
15982;SDS011;14442;50.196;8.096;2022-12-18T04:35:43;4.80;;;4.40;;
15982;SDS011;14442;50.196;8.096;2022-12-18T04:38:10;4.30;;;4.00;;
15982;SDS011;14442;50.196;8.096;2022-12-18T04:40:37;4.70;;;4.40;;
15982;SDS011;14442;50.196;8.096;2022-12-18T04:43:04;4.53;;;4.23;;
15982;SDS011;14442;50.196;8.096;2022-12-18T04:45:31;4.53;;;4.23;;
15982;SDS011;14442;50.196;8.096;2022-12-18T04:47:58;4.40;;;4.10;;
15982;SDS011;14442;50.196;8.096;2022-12-18T04:50:25;4.70;;;4.40;;
15982;SDS011;14442;50.196;8.096;2022-12-18T04:52:53;4.47;;;4.17;;
15982;SDS011;14442;50.196;8.096;2022-12-18T04:55:20;4.57;;;4.17;;
15982;SDS011;14442;50.196;8.096;2022-12-18T04:57:50;4.50;;;4.10;;
15982;SDS011;14442;50.196;8.096;2022-12-18T05:00:17;4.07;;;3.77;;
15982;SDS011;14442;50.196;8.096;2022-12-18T05:02:44;4.20;;;3.90;;
15982;SDS011;14442;50.196;8.096;2022-12-18T05:05:11;4.30;;;4.00;;
15982;SDS011;14442;50.196;8.096;2022-12-18T05:07:38;4.17;;;3.87;;
15982;SDS011;14442;50.196;8.096;2022-12-18T05:10:08;4.73;;;4.33;;
15982;SDS011;14442;50.196;8.096;2022-12-18T05:12:35;4.90;;;4.60;;
15982;SDS011;14442;50.196;8.096;2022-12-18T05:15:22;4.57;;;4.17;;
15982;SDS011;14442;50.196;8.096;2022-12-18T05:17:50;4.43;;;4.13;;
15982;SDS011;14442;50.196;8.096;2022-12-18T05:20:16;4.67;;;4.27;;
15982;SDS011;14442;50.196;8.096;2022-12-18T05:22:43;9.67;;;4.57;;
15982;SDS011;14442;50.196;8.096;2022-12-18T05:25:11;5.37;;;4.87;;
15982;SDS011;14442;50.196;8.096;2022-12-18T05:27:38;4.90;;;4.50;;
15982;SDS011;14442;50.196;8.096;2022-12-18T05:30:05;5.60;;;4.83;;
15982;SDS011;14442;50.196;8.096;2022-12-18T05:32:33;5.23;;;4.73;;
15982;SDS011;14442;50.196;8.096;2022-12-18T05:35:00;5.33;;;4.53;;
15982;SDS011;14442;50.196;8.096;2022-12-18T05:37:26;9.10;;;4.90;;
15982;SDS011;14442;50.196;8.096;2022-12-18T05:39:53;5.53;;;4.33;;
15982;SDS011;14442;50.196;8.096;2022-12-18T05:42:21;7.33;;;5.17;;
15982;SDS011;14442;50.196;8.096;2022-12-18T05:44:48;4.93;;;4.30;;
15982;SDS011;14442;50.196;8.096;2022-12-18T05:47:14;7.77;;;4.90;;
15982;SDS011;14442;50.196;8.096;2022-12-18T05:49:41;9.00;;;4.77;;
15982;SDS011;14442;50.196;8.096;2022-12-18T05:52:08;6.73;;;4.50;;
15982;SDS011;14442;50.196;8.096;2022-12-18T05:54:34;5.87;;;4.23;;
15982;SDS011;14442;50.196;8.096;2022-12-18T05:57:01;5.77;;;4.40;;
15982;SDS011;14442;50.196;8.096;2022-12-18T05:59:29;4.40;;;4.07;;
15982;SDS011;14442;50.196;8.096;2022-12-18T06:01:56;4.33;;;3.97;;
15982;SDS011;14442;50.196;8.096;2022-12-18T06:04:23;4.20;;;3.90;;
15982;SDS011;14442;50.196;8.096;2022-12-18T06:06:49;4.50;;;4.10;;
15982;SDS011;14442;50.196;8.096;2022-12-18T06:09:16;4.53;;;4.23;;
15982;SDS011;14442;50.196;8.096;2022-12-18T06:11:43;3.60;;;3.30;;
15982;SDS011;14442;50.196;8.096;2022-12-18T06:14:09;4.30;;;3.90;;
15982;SDS011;14442;50.196;8.096;2022-12-18T06:16:37;4.57;;;4.17;;
15982;SDS011;14442;50.196;8.096;2022-12-18T06:19:04;4.27;;;3.97;;
15982;SDS011;14442;50.196;8.096;2022-12-18T06:21:32;3.63;;;3.33;;
15982;SDS011;14442;50.196;8.096;2022-12-18T06:23:59;4.23;;;3.83;;
15982;SDS011;14442;50.196;8.096;2022-12-18T06:26:26;4.10;;;3.70;;
15982;SDS011;14442;50.196;8.096;2022-12-18T06:28:53;3.90;;;3.60;;
15982;SDS011;14442;50.196;8.096;2022-12-18T06:31:19;3.90;;;3.50;;
15982;SDS011;14442;50.196;8.096;2022-12-18T06:33:47;3.80;;;3.50;;
15982;SDS011;14442;50.196;8.096;2022-12-18T06:36:14;3.60;;;3.20;;
15982;SDS011;14442;50.196;8.096;2022-12-18T06:38:42;3.53;;;3.33;;
15982;SDS011;14442;50.196;8.096;2022-12-18T06:41:10;3.90;;;3.60;;
15982;SDS011;14442;50.196;8.096;2022-12-18T06:43:38;3.33;;;3.13;;
15982;SDS011;14442;50.196;8.096;2022-12-18T06:46:05;3.67;;;3.37;;
15982;SDS011;14442;50.196;8.096;2022-12-18T06:48:32;3.83;;;3.53;;
15982;SDS011;14442;50.196;8.096;2022-12-18T06:51:00;3.33;;;3.10;;
15982;SDS011;14442;50.196;8.096;2022-12-18T06:53:27;3.30;;;3.10;;
15982;SDS011;14442;50.196;8.096;2022-12-18T06:55:59;3.20;;;3.00;;
15982;SDS011;14442;50.196;8.096;2022-12-18T06:58:26;3.70;;;3.40;;
15982;SDS011;14442;50.196;8.096;2022-12-18T07:00:53;3.87;;;3.47;;
15982;SDS011;14442;50.196;8.096;2022-12-18T07:03:24;3.20;;;3.00;;
15982;SDS011;14442;50.196;8.096;2022-12-18T07:05:51;4.00;;;3.70;;
15982;SDS011;14442;50.196;8.096;2022-12-18T07:08:19;3.40;;;3.20;;
15982;SDS011;14442;50.196;8.096;2022-12-18T07:10:46;3.87;;;3.63;;
15982;SDS011;14442;50.196;8.096;2022-12-18T07:13:14;3.60;;;3.40;;
15982;SDS011;14442;50.196;8.096;2022-12-18T07:15:41;3.70;;;3.40;;
15982;SDS011;14442;50.196;8.096;2022-12-18T07:18:07;3.10;;;2.90;;
15982;SDS011;14442;50.196;8.096;2022-12-18T07:20:34;3.30;;;3.10;;
15982;SDS011;14442;50.196;8.096;2022-12-18T07:23:01;3.67;;;3.37;;
15982;SDS011;14442;50.196;8.096;2022-12-18T07:25:29;3.17;;;2.97;;
15982;SDS011;14442;50.196;8.096;2022-12-18T07:27:56;3.80;;;3.60;;
15982;SDS011;14442;50.196;8.096;2022-12-18T07:30:22;3.50;;;3.30;;
15982;SDS011;14442;50.196;8.096;2022-12-18T07:32:49;3.40;;;3.20;;
15982;SDS011;14442;50.196;8.096;2022-12-18T07:35:15;3.70;;;3.50;;
15982;SDS011;14442;50.196;8.096;2022-12-18T07:37:42;3.90;;;3.60;;
15982;SDS011;14442;50.196;8.096;2022-12-18T07:40:09;3.50;;;3.30;;
15982;SDS011;14442;50.196;8.096;2022-12-18T07:42:38;3.33;;;3.13;;
15982;SDS011;14442;50.196;8.096;2022-12-18T07:45:05;3.83;;;3.53;;
15982;SDS011;14442;50.196;8.096;2022-12-18T07:47:33;3.37;;;3.17;;
15982;SDS011;14442;50.196;8.096;2022-12-18T07:50:01;3.77;;;3.47;;
15982;SDS011;14442;50.196;8.096;2022-12-18T07:52:27;3.40;;;3.20;;
15982;SDS011;14442;50.196;8.096;2022-12-18T07:54:54;3.97;;;3.57;;
15982;SDS011;14442;50.196;8.096;2022-12-18T07:57:21;4.67;;;4.37;;
15982;SDS011;14442;50.196;8.096;2022-12-18T07:59:49;4.10;;;3.70;;
15982;SDS011;14442;50.196;8.096;2022-12-18T08:02:16;4.10;;;3.80;;
15982;SDS011;14442;50.196;8.096;2022-12-18T08:04:42;5.93;;;3.63;;
15982;SDS011;14442;50.196;8.096;2022-12-18T08:07:09;3.60;;;3.40;;
15982;SDS011;14442;50.196;8.096;2022-12-18T08:09:36;3.80;;;3.50;;
15982;SDS011;14442;50.196;8.096;2022-12-18T08:12:02;4.20;;;3.63;;
15982;SDS011;14442;50.196;8.096;2022-12-18T08:14:29;4.17;;;3.80;;
15982;SDS011;14442;50.196;8.096;2022-12-18T08:16:57;4.20;;;3.80;;
15982;SDS011;14442;50.196;8.096;2022-12-18T08:19:24;4.50;;;4.07;;
15982;SDS011;14442;50.196;8.096;2022-12-18T08:21:51;4.43;;;3.67;;
15982;SDS011;14442;50.196;8.096;2022-12-18T08:24:18;4.33;;;3.93;;
15982;SDS011;14442;50.196;8.096;2022-12-18T08:26:44;5.20;;;3.87;;
15982;SDS011;14442;50.196;8.096;2022-12-18T08:29:11;7.00;;;4.67;;
15982;SDS011;14442;50.196;8.096;2022-12-18T08:31:38;5.37;;;4.00;;
15982;SDS011;14442;50.196;8.096;2022-12-18T08:34:07;7.87;;;4.17;;
15982;SDS011;14442;50.196;8.096;2022-12-18T08:36:34;6.53;;;4.07;;
15982;SDS011;14442;50.196;8.096;2022-12-18T08:39:01;5.53;;;4.67;;
15982;SDS011;14442;50.196;8.096;2022-12-18T08:41:27;9.30;;;4.80;;
15982;SDS011;14442;50.196;8.096;2022-12-18T08:43:54;8.60;;;4.30;;
15982;SDS011;14442;50.196;8.096;2022-12-18T08:46:39;8.87;;;3.90;;
15982;SDS011;14442;50.196;8.096;2022-12-18T08:49:08;7.40;;;4.20;;
15982;SDS011;14442;50.196;8.096;2022-12-18T08:51:36;4.77;;;4.27;;
15982;SDS011;14442;50.196;8.096;2022-12-18T08:54:04;4.37;;;3.97;;
15982;SDS011;14442;50.196;8.096;2022-12-18T08:56:31;8.27;;;4.77;;
15982;SDS011;14442;50.196;8.096;2022-12-18T08:58:58;5.50;;;4.37;;
15982;SDS011;14442;50.196;8.096;2022-12-18T09:01:24;4.60;;;4.17;;
15982;SDS011;14442;50.196;8.096;2022-12-18T09:03:51;4.53;;;4.10;;
15982;SDS011;14442;50.196;8.096;2022-12-18T09:06:20;5.73;;;4.20;;
15982;SDS011;14442;50.196;8.096;2022-12-18T09:08:48;5.80;;;4.33;;
15982;SDS011;14442;50.196;8.096;2022-12-18T09:11:15;6.63;;;4.90;;
15982;SDS011;14442;50.196;8.096;2022-12-18T09:13:46;4.30;;;3.93;;
15982;SDS011;14442;50.196;8.096;2022-12-18T09:16:13;7.07;;;3.97;;
15982;SDS011;14442;50.196;8.096;2022-12-18T09:18:39;5.77;;;4.07;;
15982;SDS011;14442;50.196;8.096;2022-12-18T09:21:09;4.67;;;4.27;;
15982;SDS011;14442;50.196;8.096;2022-12-18T09:23:38;5.17;;;4.40;;
15982;SDS011;14442;50.196;8.096;2022-12-18T09:26:05;4.93;;;4.53;;
15982;SDS011;14442;50.196;8.096;2022-12-18T09:28:32;6.23;;;4.87;;
15982;SDS011;14442;50.196;8.096;2022-12-18T09:31:03;4.77;;;4.37;;
15982;SDS011;14442;50.196;8.096;2022-12-18T09:33:30;6.53;;;5.93;;
15982;SDS011;14442;50.196;8.096;2022-12-18T09:35:57;7.00;;;6.40;;
15982;SDS011;14442;50.196;8.096;2022-12-18T09:38:26;6.70;;;6.00;;
15982;SDS011;14442;50.196;8.096;2022-12-18T09:40:56;8.17;;;7.37;;
15982;SDS011;14442;50.196;8.096;2022-12-18T09:43:26;7.63;;;7.00;;
15982;SDS011;14442;50.196;8.096;2022-12-18T09:45:57;7.77;;;7.17;;
15982;SDS011;14442;50.196;8.096;2022-12-18T09:48:28;6.97;;;6.37;;
15982;SDS011;14442;50.196;8.096;2022-12-18T09:50:59;9.53;;;8.53;;
15982;SDS011;14442;50.196;8.096;2022-12-18T09:53:30;10.93;;;9.03;;
15982;SDS011;14442;50.196;8.096;2022-12-18T09:56:02;13.37;;;9.23;;
15982;SDS011;14442;50.196;8.096;2022-12-18T09:58:31;13.70;;;9.07;;
15982;SDS011;14442;50.196;8.096;2022-12-18T10:01:02;10.17;;;8.63;;
15982;SDS011;14442;50.196;8.096;2022-12-18T10:03:35;8.13;;;7.33;;
15982;SDS011;14442;50.196;8.096;2022-12-18T10:06:04;7.73;;;7.03;;
15982;SDS011;14442;50.196;8.096;2022-12-18T10:08:39;8.10;;;7.30;;
15982;SDS011;14442;50.196;8.096;2022-12-18T10:11:21;9.77;;;6.97;;
15982;SDS011;14442;50.196;8.096;2022-12-18T10:14:00;7.10;;;6.43;;
15982;SDS011;14442;50.196;8.096;2022-12-18T10:16:33;6.90;;;6.27;;
15982;SDS011;14442;50.196;8.096;2022-12-18T10:19:11;9.60;;;6.50;;
15982;SDS011;14442;50.196;8.096;2022-12-18T10:21:54;7.50;;;6.80;;
15982;SDS011;14442;50.196;8.096;2022-12-18T10:24:29;9.47;;;6.17;;
15982;SDS011;14442;50.196;8.096;2022-12-18T10:27:09;7.10;;;5.77;;
15982;SDS011;14442;50.196;8.096;2022-12-18T10:29:40;6.30;;;5.70;;
15982;SDS011;14442;50.196;8.096;2022-12-18T10:32:08;6.97;;;6.23;;
15982;SDS011;14442;50.196;8.096;2022-12-18T10:34:40;5.93;;;5.40;;
15982;SDS011;14442;50.196;8.096;2022-12-18T10:37:09;5.90;;;5.40;;
15982;SDS011;14442;50.196;8.096;2022-12-18T10:39:41;7.80;;;5.90;;
15982;SDS011;14442;50.196;8.096;2022-12-18T10:42:11;8.67;;;5.23;;
15982;SDS011;14442;50.196;8.096;2022-12-18T10:44:42;8.73;;;5.40;;
15982;SDS011;14442;50.196;8.096;2022-12-18T10:47:11;7.43;;;5.13;;
15982;SDS011;14442;50.196;8.096;2022-12-18T10:49:42;7.27;;;5.47;;
15982;SDS011;14442;50.196;8.096;2022-12-18T10:52:15;6.60;;;5.37;;
15982;SDS011;14442;50.196;8.096;2022-12-18T10:54:48;6.83;;;5.57;;
15982;SDS011;14442;50.196;8.096;2022-12-18T10:57:28;6.00;;;5.13;;
15982;SDS011;14442;50.196;8.096;2022-12-18T10:59:58;7.13;;;5.67;;
15982;SDS011;14442;50.196;8.096;2022-12-18T11:02:28;6.67;;;5.60;;
15982;SDS011;14442;50.196;8.096;2022-12-18T11:05:00;5.70;;;4.97;;
15982;SDS011;14442;50.196;8.096;2022-12-18T11:07:29;7.70;;;5.40;;
15982;SDS011;14442;50.196;8.096;2022-12-18T11:10:15;6.67;;;4.87;;
15982;SDS011;14442;50.196;8.096;2022-12-18T11:12:44;6.27;;;5.57;;
15982;SDS011;14442;50.196;8.096;2022-12-18T11:15:15;6.47;;;5.47;;
15982;SDS011;14442;50.196;8.096;2022-12-18T11:17:43;6.80;;;5.80;;
15982;SDS011;14442;50.196;8.096;2022-12-18T11:20:24;7.20;;;5.40;;
15982;SDS011;14442;50.196;8.096;2022-12-18T11:22:57;6.70;;;5.20;;
15982;SDS011;14442;50.196;8.096;2022-12-18T11:25:25;5.57;;;5.07;;
15982;SDS011;14442;50.196;8.096;2022-12-18T11:27:56;6.50;;;5.63;;
15982;SDS011;14442;50.196;8.096;2022-12-18T11:30:26;6.67;;;4.97;;
15982;SDS011;14442;50.196;8.096;2022-12-18T11:33:02;6.13;;;5.43;;
15982;SDS011;14442;50.196;8.096;2022-12-18T11:35:39;5.80;;;5.20;;
15982;SDS011;14442;50.196;8.096;2022-12-18T11:38:12;6.00;;;5.40;;
15982;SDS011;14442;50.196;8.096;2022-12-18T11:40:45;6.10;;;5.50;;
15982;SDS011;14442;50.196;8.096;2022-12-18T11:43:18;6.30;;;5.03;;
15982;SDS011;14442;50.196;8.096;2022-12-18T11:45:51;6.13;;;5.47;;
15982;SDS011;14442;50.196;8.096;2022-12-18T11:48:21;6.07;;;5.00;;
15982;SDS011;14442;50.196;8.096;2022-12-18T11:50:51;8.27;;;5.97;;
15982;SDS011;14442;50.196;8.096;2022-12-18T11:53:20;6.03;;;5.20;;
15982;SDS011;14442;50.196;8.096;2022-12-18T11:55:50;6.73;;;5.77;;
15982;SDS011;14442;50.196;8.096;2022-12-18T11:58:29;6.53;;;5.00;;
15982;SDS011;14442;50.196;8.096;2022-12-18T12:01:06;5.53;;;4.80;;
15982;SDS011;14442;50.196;8.096;2022-12-18T12:03:48;7.90;;;4.87;;
15982;SDS011;14442;50.196;8.096;2022-12-18T12:06:34;5.70;;;5.10;;
15982;SDS011;14442;50.196;8.096;2022-12-18T12:09:13;6.73;;;4.77;;
15982;SDS011;14442;50.196;8.096;2022-12-18T12:11:52;9.80;;;5.80;;
15982;SDS011;14442;50.196;8.096;2022-12-18T12:14:33;8.63;;;5.23;;
15982;SDS011;14442;50.196;8.096;2022-12-18T12:17:14;8.37;;;4.87;;
15982;SDS011;14442;50.196;8.096;2022-12-18T12:19:50;5.40;;;4.80;;
15982;SDS011;14442;50.196;8.096;2022-12-18T12:22:27;6.53;;;4.70;;
15982;SDS011;14442;50.196;8.096;2022-12-18T12:25:07;7.13;;;5.20;;
15982;SDS011;14442;50.196;8.096;2022-12-18T12:27:48;5.40;;;4.90;;
15982;SDS011;14442;50.196;8.096;2022-12-18T12:30:26;8.40;;;5.17;;
15982;SDS011;14442;50.196;8.096;2022-12-18T12:33:03;7.87;;;4.63;;
15982;SDS011;14442;50.196;8.096;2022-12-18T12:35:44;6.80;;;4.60;;
15982;SDS011;14442;50.196;8.096;2022-12-18T12:38:17;6.13;;;4.90;;
15982;SDS011;14442;50.196;8.096;2022-12-18T12:40:48;4.97;;;4.43;;
15982;SDS011;14442;50.196;8.096;2022-12-18T12:43:24;4.83;;;4.43;;
15982;SDS011;14442;50.196;8.096;2022-12-18T12:45:57;6.37;;;4.87;;
15982;SDS011;14442;50.196;8.096;2022-12-18T12:48:34;7.63;;;4.87;;
15982;SDS011;14442;50.196;8.096;2022-12-18T12:51:09;7.53;;;5.47;;
15982;SDS011;14442;50.196;8.096;2022-12-18T12:53:40;7.37;;;4.73;;
15982;SDS011;14442;50.196;8.096;2022-12-18T12:56:07;5.67;;;4.40;;
15982;SDS011;14442;50.196;8.096;2022-12-18T12:58:38;5.80;;;4.87;;
15982;SDS011;14442;50.196;8.096;2022-12-18T13:01:16;5.57;;;5.07;;
15982;SDS011;14442;50.196;8.096;2022-12-18T13:03:52;5.53;;;4.80;;
15982;SDS011;14442;50.196;8.096;2022-12-18T13:06:29;4.60;;;4.10;;
15982;SDS011;14442;50.196;8.096;2022-12-18T13:09:03;4.73;;;4.43;;
15982;SDS011;14442;50.196;8.096;2022-12-18T13:11:37;5.77;;;4.40;;
15982;SDS011;14442;50.196;8.096;2022-12-18T13:14:24;6.13;;;4.13;;
15982;SDS011;14442;50.196;8.096;2022-12-18T13:19:50;6.50;;;5.37;;
15982;SDS011;14442;50.196;8.096;2022-12-18T13:22:20;5.40;;;4.90;;
15982;SDS011;14442;50.196;8.096;2022-12-18T13:24:48;5.37;;;4.97;;
15982;SDS011;14442;50.196;8.096;2022-12-18T13:33:34;5.33;;;4.93;;
15982;SDS011;14442;50.196;8.096;2022-12-18T13:36:15;5.43;;;4.93;;
15982;SDS011;14442;50.196;8.096;2022-12-18T13:39:09;5.03;;;4.60;;
15982;SDS011;14442;50.196;8.096;2022-12-18T13:41:47;5.53;;;4.97;;
15982;SDS011;14442;50.196;8.096;2022-12-18T13:44:21;6.40;;;5.70;;
15982;SDS011;14442;50.196;8.096;2022-12-18T13:46:52;5.67;;;5.23;;
15982;SDS011;14442;50.196;8.096;2022-12-18T13:49:22;5.73;;;5.20;;
15982;SDS011;14442;50.196;8.096;2022-12-18T13:51:52;5.43;;;4.90;;
15982;SDS011;14442;50.196;8.096;2022-12-18T13:54:22;5.27;;;4.87;;
15982;SDS011;14442;50.196;8.096;2022-12-18T13:56:53;5.00;;;4.60;;
15982;SDS011;14442;50.196;8.096;2022-12-18T13:59:20;5.37;;;4.97;;
15982;SDS011;14442;50.196;8.096;2022-12-18T14:01:50;6.10;;;5.50;;
15982;SDS011;14442;50.196;8.096;2022-12-18T14:04:20;5.20;;;4.80;;
15982;SDS011;14442;50.196;8.096;2022-12-18T14:06:51;5.60;;;5.10;;
15982;SDS011;14442;50.196;8.096;2022-12-18T14:09:22;5.43;;;5.03;;
15982;SDS011;14442;50.196;8.096;2022-12-18T14:11:51;5.50;;;5.10;;
15982;SDS011;14442;50.196;8.096;2022-12-18T14:14:41;5.80;;;5.33;;
15982;SDS011;14442;50.196;8.096;2022-12-18T14:17:12;5.43;;;5.03;;
15982;SDS011;14442;50.196;8.096;2022-12-18T14:19:42;5.43;;;4.93;;
15982;SDS011;14442;50.196;8.096;2022-12-18T14:22:14;5.93;;;5.43;;
15982;SDS011;14442;50.196;8.096;2022-12-18T14:24:44;7.10;;;5.10;;
15982;SDS011;14442;50.196;8.096;2022-12-18T14:27:13;5.90;;;5.37;;
15982;SDS011;14442;50.196;8.096;2022-12-18T14:29:48;6.57;;;5.93;;
15982;SDS011;14442;50.196;8.096;2022-12-18T14:32:16;9.57;;;6.13;;
15982;SDS011;14442;50.196;8.096;2022-12-18T14:34:46;9.23;;;5.80;;
15982;SDS011;14442;50.196;8.096;2022-12-18T14:37:14;8.07;;;5.73;;
15982;SDS011;14442;50.196;8.096;2022-12-18T14:39:51;5.63;;;5.13;;
15982;SDS011;14442;50.196;8.096;2022-12-18T14:42:22;5.73;;;5.17;;
15982;SDS011;14442;50.196;8.096;2022-12-18T14:47:53;6.03;;;5.37;;
15982;SDS011;14442;50.196;8.096;2022-12-18T14:50:21;6.03;;;5.53;;
15982;SDS011;14442;50.196;8.096;2022-12-18T14:52:48;5.63;;;5.20;;
15982;SDS011;14442;50.196;8.096;2022-12-18T14:55:16;5.90;;;5.40;;
15982;SDS011;14442;50.196;8.096;2022-12-18T14:57:43;6.10;;;5.50;;
15982;SDS011;14442;50.196;8.096;2022-12-18T15:00:15;5.80;;;5.30;;
15982;SDS011;14442;50.196;8.096;2022-12-18T15:02:43;5.57;;;5.07;;
15982;SDS011;14442;50.196;8.096;2022-12-18T15:05:16;5.87;;;5.37;;
15982;SDS011;14442;50.196;8.096;2022-12-18T15:07:46;5.70;;;5.13;;
15982;SDS011;14442;50.196;8.096;2022-12-18T15:10:14;5.43;;;5.03;;
15982;SDS011;14442;50.196;8.096;2022-12-18T15:12:43;5.73;;;5.30;;
15982;SDS011;14442;50.196;8.096;2022-12-18T15:18:14;5.30;;;4.90;;
15982;SDS011;14442;50.196;8.096;2022-12-18T15:20:43;5.37;;;4.97;;
15982;SDS011;14442;50.196;8.096;2022-12-18T15:23:15;5.50;;;5.00;;